Time;durP1;ratioP1;P1;durP2;ratioP2;P2;SDS_P1;SDS_P2;PMS_P1;PMS_P2;Temp;Humidity;BMP_temperature;BMP_pressure;BME280_temperature;BME280_humidity;BME280_pressure;Samples;Min_cycle;Max_cycle;Signal;HPM_P1;HPM_P2
2022/08/06 00:00:31;;;;;;;;;;;12.90;99.90;;;;;;5037449;28;19916;-71
2022/08/06 00:02:56;;;;;;;;;;;12.90;99.90;;;;;;5030091;28;19913;-72
2022/08/06 00:05:22;;;;;;;;;;;12.80;99.90;;;;;;5033270;28;19917;-82
2022/08/06 00:07:47;;;;;;;;;;;12.80;99.90;;;;;;5030321;28;19913;-71
2022/08/06 00:10:14;;;;;;;;;;;12.80;99.90;;;;;;5034440;28;19967;-71
2022/08/06 00:12:40;;;;;;;;;;;12.70;99.90;;;;;;5033498;28;19917;-71
2022/08/06 00:15:06;;;;;;;;;;;12.70;99.90;;;;;;5033968;28;20236;-71
2022/08/06 00:17:31;;;;;;;;;;;12.70;99.90;;;;;;5034154;28;19948;-83
2022/08/06 00:19:57;;;;;;;;;;;12.60;99.90;;;;;;5032145;28;19964;-72
2022/08/06 00:22:23;;;;;;;;;;;12.70;99.90;;;;;;5033905;28;19924;-71
2022/08/06 00:24:48;;;;;;;;;;;12.70;99.90;;;;;;5047774;28;19917;-82
2022/08/06 00:27:17;;;;;;;;;;;12.70;99.90;;;;;;5031649;28;21237;-71
2022/08/06 00:29:42;;;;;;;;;;;12.70;99.90;;;;;;5033520;28;19919;-71
2022/08/06 00:32:08;;;;;;;;;;;12.70;99.90;;;;;;5035562;28;20311;-71
2022/08/06 00:34:33;;;;;;;;;;;12.70;99.90;;;;;;5031478;28;20252;-71
2022/08/06 00:36:59;;;;;;;;;;;12.70;99.90;;;;;;5033312;28;19917;-71
2022/08/06 00:39:24;;;;;;;;;;;12.70;99.90;;;;;;5038517;28;19919;-71
2022/08/06 00:41:50;;;;;;;;;;;12.70;99.90;;;;;;5036876;28;19921;-84
2022/08/06 00:44:15;;;;;;;;;;;12.60;99.90;;;;;;5032381;28;19924;-71
2022/08/06 00:46:41;;;;;;;;;;;12.60;99.90;;;;;;5040886;28;19909;-71
2022/08/06 00:49:07;;;;;;;;;;;12.70;99.90;;;;;;5031975;28;19917;-71
2022/08/06 00:51:34;;;;;;;;;;;12.60;99.90;;;;;;5032574;28;19921;-71
2022/08/06 00:54:00;;;;;;;;;;;12.60;99.90;;;;;;5033680;28;19924;-71
2022/08/06 00:56:26;;;;;;;;;;;12.50;99.90;;;;;;5038006;28;19917;-71
2022/08/06 00:58:51;;;;;;;;;;;12.50;99.90;;;;;;5037590;28;19990;-71
2022/08/06 01:01:17;;;;;;;;;;;12.50;99.90;;;;;;5045348;28;19925;-71
2022/08/06 01:03:42;;;;;;;;;;;12.50;99.90;;;;;;5031100;28;19928;-71
2022/08/06 01:06:08;;;;;;;;;;;12.50;99.90;;;;;;5033515;28;19913;-71
2022/08/06 01:08:33;;;;;;;;;;;12.40;99.90;;;;;;5039778;28;19924;-71
2022/08/06 01:10:59;;;;;;;;;;;12.50;99.90;;;;;;5037033;28;20000;-71
2022/08/06 01:13:25;;;;;;;;;;;12.50;99.90;;;;;;5029744;28;20022;-71
2022/08/06 01:15:54;;;;;;;;;;;12.60;99.90;;;;;;5033702;28;19921;-71
2022/08/06 01:18:27;;;;;;;;;;;12.70;99.90;;;;;;5031103;28;19971;-71
2022/08/06 01:21:05;;;;;;;;;;;12.70;99.90;;;;;;5031621;28;19917;-71
2022/08/06 01:23:52;;;;;;;;;;;12.70;99.90;;;;;;5027138;28;20335;-71
2022/08/06 01:26:28;;;;;;;;;;;12.60;99.90;;;;;;5022144;28;19920;-71
2022/08/06 01:29:11;;;;;;;;;;;12.50;99.90;;;;;;5032350;28;19919;-72
2022/08/06 01:31:43;;;;;;;;;;;12.50;99.90;;;;;;5037753;28;20209;-71
2022/08/06 01:34:15;;;;;;;;;;;12.50;99.90;;;;;;5029249;28;19917;-71
2022/08/06 01:36:47;;;;;;;;;;;12.40;99.90;;;;;;5036525;28;19917;-71
2022/08/06 01:39:15;;;;;;;;;;;12.40;99.90;;;;;;5034054;28;19935;-71
2022/08/06 01:41:45;;;;;;;;;;;12.30;99.90;;;;;;5037671;28;19935;-72
2022/08/06 01:44:13;;;;;;;;;;;12.30;99.90;;;;;;5032690;28;19917;-71
2022/08/06 01:46:49;;;;;;;;;;;12.30;99.90;;;;;;5036711;28;20224;-71
2022/08/06 01:49:20;;;;;;;;;;;12.30;99.90;;;;;;5046994;28;19913;-72
2022/08/06 01:51:47;;;;;;;;;;;12.30;99.90;;;;;;5036581;28;20201;-71
2022/08/06 01:54:14;;;;;;;;;;;12.40;99.90;;;;;;5033860;28;20185;-71
2022/08/06 01:56:41;;;;;;;;;;;12.30;99.90;;;;;;5037039;28;20031;-72
2022/08/06 01:59:07;;;;;;;;;;;12.30;99.90;;;;;;5031684;28;19928;-71
2022/08/06 02:01:34;;;;;;;;;;;12.20;99.90;;;;;;5029766;28;19924;-71
2022/08/06 02:04:01;;;;;;;;;;;12.30;99.90;;;;;;5036415;28;19913;-71
2022/08/06 02:06:28;;;;;;;;;;;12.30;99.90;;;;;;5033795;28;19918;-71
2022/08/06 02:08:54;;;;;;;;;;;12.30;99.90;;;;;;5039871;28;19914;-71
2022/08/06 02:11:20;;;;;;;;;;;12.20;99.90;;;;;;5044710;28;19920;-82
2022/08/06 02:13:46;;;;;;;;;;;12.20;99.90;;;;;;5037147;28;19917;-71
2022/08/06 02:16:12;;;;;;;;;;;12.20;99.90;;;;;;5035956;28;19913;-71
2022/08/06 02:18:41;;;;;;;;;;;12.10;99.90;;;;;;5040496;28;20003;-71
2022/08/06 02:21:08;;;;;;;;;;;12.10;99.90;;;;;;5029658;28;19924;-71
2022/08/06 02:23:35;;;;;;;;;;;12.00;99.90;;;;;;5037337;28;19921;-72
2022/08/06 02:26:01;;;;;;;;;;;12.00;99.90;;;;;;5037158;28;19917;-71
2022/08/06 02:28:27;;;;;;;;;;;12.00;99.90;;;;;;5030997;28;19913;-71
2022/08/06 02:30:55;;;;;;;;;;;12.00;99.90;;;;;;5037791;28;19916;-71
2022/08/06 02:33:20;;;;;;;;;;;12.10;99.90;;;;;;5035655;28;20347;-71
2022/08/06 02:35:52;;;;;;;;;;;12.10;99.90;;;;;;5038827;28;19908;-71
2022/08/06 02:38:31;;;;;;;;;;;12.20;99.90;;;;;;5043650;28;19921;-71
2022/08/06 02:40:59;;;;;;;;;;;12.10;99.90;;;;;;5039274;28;19935;-71
2022/08/06 02:43:31;;;;;;;;;;;12.10;99.90;;;;;;5035275;28;19917;-82
2022/08/06 02:46:00;;;;;;;;;;;12.10;99.90;;;;;;5038329;28;19932;-71
2022/08/06 02:48:43;;;;;;;;;;;12.10;99.90;;;;;;5031270;28;20527;-82
2022/08/06 02:51:11;;;;;;;;;;;12.10;99.90;;;;;;5040362;28;19963;-71
2022/08/06 02:53:42;;;;;;;;;;;12.10;99.90;;;;;;5032447;28;20127;-71
2022/08/06 02:56:10;;;;;;;;;;;12.10;99.90;;;;;;5050635;28;20377;-71
2022/08/06 02:58:41;;;;;;;;;;;12.10;99.90;;;;;;5032626;28;19920;-71
2022/08/06 03:01:09;;;;;;;;;;;12.10;99.90;;;;;;5036872;28;20369;-70
2022/08/06 03:03:36;;;;;;;;;;;12.20;99.90;;;;;;5034412;28;19921;-71
2022/08/06 03:06:04;;;;;;;;;;;12.30;99.90;;;;;;5039648;28;19921;-71
2022/08/06 03:08:30;;;;;;;;;;;12.20;99.90;;;;;;5030355;28;19921;-82
2022/08/06 03:10:57;;;;;;;;;;;12.10;99.90;;;;;;5036816;28;19921;-71
2022/08/06 03:13:23;;;;;;;;;;;12.10;99.90;;;;;;5042464;28;20216;-82
2022/08/06 03:15:49;;;;;;;;;;;12.10;99.90;;;;;;5036497;28;19963;-71
2022/08/06 03:18:15;;;;;;;;;;;12.10;99.90;;;;;;5040314;28;19921;-71
2022/08/06 03:20:41;;;;;;;;;;;12.00;99.90;;;;;;5034434;28;19927;-71
2022/08/06 03:23:08;;;;;;;;;;;12.00;99.90;;;;;;5042038;28;19913;-71
2022/08/06 03:25:35;;;;;;;;;;;12.00;99.90;;;;;;5040495;28;19921;-71
2022/08/06 03:28:01;;;;;;;;;;;12.00;99.90;;;;;;5035385;28;20019;-71
2022/08/06 03:30:27;;;;;;;;;;;11.90;99.90;;;;;;5035866;28;19917;-71
2022/08/06 03:32:53;;;;;;;;;;;11.90;99.90;;;;;;5035568;28;19959;-71
2022/08/06 03:35:19;;;;;;;;;;;11.80;99.90;;;;;;5034689;28;19912;-71
2022/08/06 03:37:46;;;;;;;;;;;11.90;99.90;;;;;;5030491;28;19924;-71
2022/08/06 03:40:13;;;;;;;;;;;11.90;99.90;;;;;;5034392;28;19917;-71
2022/08/06 03:42:41;;;;;;;;;;;12.00;99.90;;;;;;5031735;28;20371;-71
2022/08/06 03:45:06;;;;;;;;;;;12.10;99.90;;;;;;5034919;28;19968;-71
2022/08/06 03:47:36;;;;;;;;;;;12.00;99.90;;;;;;5033946;28;19913;-81
2022/08/06 03:50:04;;;;;;;;;;;11.90;99.90;;;;;;5035089;28;19916;-71
2022/08/06 03:52:31;;;;;;;;;;;11.80;99.90;;;;;;5033780;28;20198;-71
2022/08/06 03:55:01;;;;;;;;;;;11.90;99.90;;;;;;5037756;28;19913;-79
2022/08/06 03:57:30;;;;;;;;;;;12.00;99.90;;;;;;5036708;28;19928;-71
2022/08/06 04:00:00;;;;;;;;;;;12.10;99.90;;;;;;5031853;28;20449;-71
2022/08/06 04:02:38;;;;;;;;;;;12.10;99.90;;;;;;5031494;28;19917;-71
2022/08/06 04:05:05;;;;;;;;;;;12.10;99.90;;;;;;5030387;28;19924;-71
2022/08/06 04:07:31;;;;;;;;;;;12.10;99.90;;;;;;5028393;28;20217;-71
2022/08/06 04:09:58;;;;;;;;;;;12.10;99.90;;;;;;5033551;28;19959;-71
2022/08/06 04:12:24;;;;;;;;;;;12.10;99.90;;;;;;5034064;28;20015;-71
2022/08/06 04:14:50;;;;;;;;;;;12.00;99.90;;;;;;5032331;28;20015;-71
2022/08/06 04:17:17;;;;;;;;;;;12.10;99.90;;;;;;5031289;28;19921;-71
2022/08/06 04:19:43;;;;;;;;;;;12.10;99.90;;;;;;5029263;28;19917;-71
2022/08/06 04:22:09;;;;;;;;;;;12.10;99.90;;;;;;5033855;28;19963;-81
2022/08/06 04:24:34;;;;;;;;;;;11.90;99.90;;;;;;5030385;28;19964;-71
2022/08/06 04:27:02;;;;;;;;;;;11.80;99.90;;;;;;5034116;28;19967;-72
2022/08/06 04:29:28;;;;;;;;;;;11.80;99.90;;;;;;5029389;28;19996;-71
2022/08/06 04:31:54;;;;;;;;;;;11.80;99.90;;;;;;5031803;28;19924;-71
2022/08/06 04:34:22;;;;;;;;;;;11.80;99.90;;;;;;5032710;28;19917;-71
2022/08/06 04:36:48;;;;;;;;;;;11.80;99.90;;;;;;5027581;28;19913;-71
2022/08/06 04:39:14;;;;;;;;;;;11.80;99.90;;;;;;5036984;28;19928;-71
2022/08/06 04:41:40;;;;;;;;;;;11.80;99.90;;;;;;5038501;28;20296;-71
2022/08/06 04:44:05;;;;;;;;;;;11.80;99.90;;;;;;5030839;28;20042;-72
2022/08/06 04:46:32;;;;;;;;;;;11.90;99.90;;;;;;5044249;28;19916;-71
2022/08/06 04:48:57;;;;;;;;;;;11.90;99.90;;;;;;5033595;28;20216;-71
2022/08/06 04:51:23;;;;;;;;;;;11.90;99.90;;;;;;5031644;28;19931;-80
2022/08/06 04:53:49;;;;;;;;;;;12.00;99.90;;;;;;5030113;28;19987;-71
2022/08/06 04:56:14;;;;;;;;;;;12.00;99.90;;;;;;5035654;28;20379;-71
2022/08/06 04:58:40;;;;;;;;;;;12.10;99.90;;;;;;5031252;28;19963;-71
2022/08/06 05:01:06;;;;;;;;;;;12.00;99.90;;;;;;5030614;28;19971;-71
2022/08/06 05:03:31;;;;;;;;;;;11.90;99.90;;;;;;5028707;28;19971;-71
2022/08/06 05:06:03;;;;;;;;;;;11.90;99.90;;;;;;5033002;28;19965;-71
2022/08/06 05:08:30;;;;;;;;;;;11.90;99.90;;;;;;5029914;28;19917;-71
2022/08/06 05:11:05;;;;;;;;;;;12.00;99.90;;;;;;5032816;28;19913;-71
2022/08/06 05:13:34;;;;;;;;;;;12.00;99.90;;;;;;5033028;28;19957;-71
2022/08/06 05:16:02;;;;;;;;;;;12.10;99.90;;;;;;5032026;28;19913;-71
2022/08/06 05:18:32;;;;;;;;;;;12.10;99.90;;;;;;5033619;28;19929;-71
2022/08/06 05:20:58;;;;;;;;;;;12.10;99.90;;;;;;5027853;28;20205;-71
2022/08/06 05:23:29;;;;;;;;;;;12.10;99.90;;;;;;5032391;28;19918;-71
2022/08/06 05:25:54;;;;;;;;;;;12.10;99.90;;;;;;5029746;28;19921;-71
2022/08/06 05:28:20;;;;;;;;;;;12.20;99.90;;;;;;5033060;28;19917;-71
2022/08/06 05:30:46;;;;;;;;;;;12.20;99.90;;;;;;5032828;28;20323;-71
2022/08/06 05:33:21;;;;;;;;;;;12.30;99.90;;;;;;5032692;28;19913;-81
2022/08/06 05:35:47;;;;;;;;;;;12.40;99.90;;;;;;5025068;28;19914;-72
2022/08/06 05:38:12;;;;;;;;;;;12.40;99.90;;;;;;5029856;28;19917;-71
2022/08/06 05:40:38;;;;;;;;;;;12.40;99.90;;;;;;5037882;28;19917;-71
2022/08/06 05:43:04;;;;;;;;;;;12.50;99.90;;;;;;5039465;28;19925;-72
2022/08/06 05:45:30;;;;;;;;;;;12.70;99.90;;;;;;5034775;28;20304;-72
2022/08/06 05:47:57;;;;;;;;;;;12.80;99.90;;;;;;5054043;28;19909;-72
2022/08/06 05:50:26;;;;;;;;;;;12.80;99.90;;;;;;5047648;28;19917;-82
2022/08/06 05:52:58;;;;;;;;;;;13.00;99.90;;;;;;5039008;28;19913;-71
2022/08/06 05:55:31;;;;;;;;;;;13.00;99.90;;;;;;5039790;28;19939;-71
2022/08/06 05:57:59;;;;;;;;;;;13.10;99.90;;;;;;5027398;28;19960;-72
2022/08/06 06:00:26;;;;;;;;;;;13.20;99.90;;;;;;5040200;28;19925;-71
2022/08/06 06:02:53;;;;;;;;;;;13.30;99.90;;;;;;5036311;28;19916;-71
2022/08/06 06:05:20;;;;;;;;;;;13.40;99.90;;;;;;5035184;28;19970;-81
2022/08/06 06:07:46;;;;;;;;;;;13.50;99.90;;;;;;5033499;28;19924;-71
2022/08/06 06:10:12;;;;;;;;;;;13.50;99.90;;;;;;5043521;28;19948;-72
2022/08/06 06:12:39;;;;;;;;;;;13.80;99.90;;;;;;5041625;28;19936;-71
2022/08/06 06:15:05;;;;;;;;;;;13.90;99.90;;;;;;5042739;28;20317;-72
2022/08/06 06:17:46;;;;;;;;;;;14.10;99.90;;;;;;5040248;28;20397;-71
2022/08/06 06:20:14;;;;;;;;;;;14.10;99.90;;;;;;5044979;28;19921;-72
2022/08/06 06:22:46;;;;;;;;;;;14.20;99.90;;;;;;5034892;28;20304;-72
2022/08/06 06:25:27;;;;;;;;;;;14.20;99.90;;;;;;5038755;28;19913;-71
2022/08/06 06:27:57;;;;;;;;;;;14.30;99.90;;;;;;5036913;28;19909;-71
2022/08/06 06:30:44;;;;;;;;;;;14.40;99.90;;;;;;5038500;28;19917;-71
2022/08/06 06:33:15;;;;;;;;;;;14.50;99.90;;;;;;5038274;28;19909;-70
2022/08/06 06:35:50;;;;;;;;;;;14.60;99.90;;;;;;5035389;28;19924;-71
2022/08/06 06:38:28;;;;;;;;;;;14.70;99.90;;;;;;5035172;28;20271;-70
2022/08/06 06:40:57;;;;;;;;;;;15.00;99.90;;;;;;5036977;28;19980;-71
2022/08/06 06:43:40;;;;;;;;;;;15.30;99.90;;;;;;5034992;28;20331;-70
2022/08/06 06:46:05;;;;;;;;;;;15.60;99.90;;;;;;5034195;28;19917;-70
2022/08/06 06:48:33;;;;;;;;;;;15.80;99.90;;;;;;5032462;28;19913;-71
2022/08/06 06:51:02;;;;;;;;;;;15.80;99.90;;;;;;5036906;28;19913;-71
2022/08/06 06:53:30;;;;;;;;;;;16.00;99.90;;;;;;5038682;28;19951;-71
2022/08/06 06:55:56;;;;;;;;;;;16.00;99.90;;;;;;5044833;28;19913;-71
2022/08/06 06:58:25;;;;;;;;;;;16.20;99.90;;;;;;5046973;28;20326;-71
2022/08/06 07:00:53;;;;;;;;;;;16.30;99.90;;;;;;5039902;28;19924;-71
2022/08/06 07:03:19;;;;;;;;;;;16.40;99.90;;;;;;5051735;28;19921;-72
2022/08/06 07:05:46;;;;;;;;;;;16.40;99.90;;;;;;5048079;28;19916;-71
2022/08/06 07:08:14;;;;;;;;;;;16.50;99.90;;;;;;5035773;28;19913;-70
2022/08/06 07:10:40;;;;;;;;;;;16.60;99.90;;;;;;5041155;28;20221;-71
2022/08/06 07:13:07;;;;;;;;;;;16.60;99.90;;;;;;5030958;28;19921;-72
2022/08/06 07:15:34;;;;;;;;;;;16.70;99.90;;;;;;5051500;28;20366;-71
2022/08/06 07:18:01;;;;;;;;;;;16.80;99.90;;;;;;5044496;28;20019;-71
2022/08/06 07:20:28;;;;;;;;;;;16.90;99.90;;;;;;5044498;28;19913;-71
2022/08/06 07:22:55;;;;;;;;;;;16.90;99.90;;;;;;5046175;28;20312;-71
2022/08/06 07:25:21;;;;;;;;;;;17.00;99.90;;;;;;5049110;28;19983;-81
2022/08/06 07:27:48;;;;;;;;;;;17.00;99.90;;;;;;5036765;28;19913;-71
2022/08/06 07:30:15;;;;;;;;;;;17.10;99.90;;;;;;5047463;28;19924;-71
2022/08/06 07:32:42;;;;;;;;;;;17.20;99.90;;;;;;5038853;28;19924;-71
2022/08/06 07:35:10;;;;;;;;;;;17.40;99.90;;;;;;5052050;28;19913;-71
2022/08/06 07:37:36;;;;;;;;;;;17.40;99.90;;;;;;5042970;28;19952;-71
2022/08/06 07:40:03;;;;;;;;;;;17.70;99.90;;;;;;5048015;28;19912;-71
2022/08/06 07:42:29;;;;;;;;;;;17.90;99.90;;;;;;5050812;28;19928;-71
2022/08/06 07:44:57;;;;;;;;;;;18.10;99.90;;;;;;5033686;28;19960;-71
2022/08/06 07:47:37;;;;;;;;;;;18.40;99.90;;;;;;5040814;28;20248;-71
2022/08/06 07:50:03;;;;;;;;;;;18.60;99.90;;;;;;5038060;28;20026;-71
2022/08/06 07:52:29;;;;;;;;;;;18.80;99.90;;;;;;5034600;28;20076;-71
2022/08/06 07:54:56;;;;;;;;;;;18.90;99.90;;;;;;5037629;28;19913;-71
2022/08/06 07:57:26;;;;;;;;;;;19.20;99.90;;;;;;5040054;28;20296;-72
2022/08/06 07:59:52;;;;;;;;;;;19.50;99.90;;;;;;5030059;28;19913;-71
2022/08/06 08:02:18;;;;;;;;;;;19.60;99.90;;;;;;5037290;28;20330;-81
2022/08/06 08:07:28;;;;;;;;;;;19.80;99.90;;;;;;5031338;28;19939;-71
2022/08/06 08:09:55;;;;;;;;;;;20.00;99.90;;;;;;5032334;28;20378;-71
2022/08/06 08:12:21;;;;;;;;;;;20.00;99.90;;;;;;5029353;28;19921;-81
2022/08/06 08:14:48;;;;;;;;;;;20.20;99.90;;;;;;5033260;28;19917;-72
2022/08/06 08:17:14;;;;;;;;;;;20.20;99.90;;;;;;5029803;28;20039;-71
2022/08/06 08:19:40;;;;;;;;;;;20.40;99.90;;;;;;5032364;28;19964;-72
2022/08/06 08:22:05;;;;;;;;;;;20.20;99.90;;;;;;5032580;28;19925;-72
2022/08/06 08:24:32;;;;;;;;;;;20.20;99.90;;;;;;5033539;28;20216;-72
2022/08/06 08:26:58;;;;;;;;;;;20.40;99.90;;;;;;5026689;28;19952;-71
2022/08/06 08:29:24;;;;;;;;;;;20.50;99.90;;;;;;5033221;28;20473;-71
2022/08/06 08:31:49;;;;;;;;;;;20.60;99.90;;;;;;5032225;28;19921;-72
2022/08/06 08:34:15;;;;;;;;;;;20.50;99.10;;;;;;5029111;28;20382;-72
2022/08/06 08:36:41;;;;;;;;;;;20.50;99.90;;;;;;5032472;28;19919;-72
2022/08/06 08:39:07;;;;;;;;;;;20.40;98.80;;;;;;5043429;28;19914;-72
2022/08/06 08:41:47;;;;;;;;;;;20.20;99.10;;;;;;5037349;28;19923;-71
2022/08/06 08:44:13;;;;;;;;;;;20.20;99.40;;;;;;5044788;28;19946;-71
2022/08/06 08:46:40;;;;;;;;;;;20.30;99.80;;;;;;5031331;28;19913;-78
2022/08/06 08:49:06;;;;;;;;;;;20.40;99.90;;;;;;5026603;28;19921;-71
2022/08/06 08:51:38;;;;;;;;;;;20.60;99.80;;;;;;5030924;28;20279;-71
2022/08/06 08:54:05;;;;;;;;;;;20.60;98.60;;;;;;5032290;28;20268;-71
2022/08/06 08:56:31;;;;;;;;;;;20.60;98.50;;;;;;5028550;28;19971;-72
2022/08/06 08:58:57;;;;;;;;;;;20.60;98.80;;;;;;5038644;28;19917;-71
2022/08/06 09:01:22;;;;;;;;;;;20.40;99.30;;;;;;5036858;28;19925;-71
2022/08/06 09:03:48;;;;;;;;;;;20.60;98.50;;;;;;5041939;28;20211;-71
2022/08/06 09:06:14;;;;;;;;;;;20.70;98.80;;;;;;5032286;28;19925;-72
2022/08/06 09:08:40;;;;;;;;;;;20.80;99.90;;;;;;5028791;28;19921;-72
2022/08/06 09:11:06;;;;;;;;;;;20.90;99.30;;;;;;5031768;28;19917;-71
2022/08/06 09:13:31;;;;;;;;;;;21.10;99.40;;;;;;5031178;28;19959;-71
2022/08/06 09:15:57;;;;;;;;;;;21.10;99.30;;;;;;5031037;28;20331;-71
2022/08/06 09:18:24;;;;;;;;;;;21.30;98.50;;;;;;5030594;28;20016;-71
2022/08/06 09:20:50;;;;;;;;;;;21.30;98.60;;;;;;5036748;28;20366;-76
2022/08/06 09:23:16;;;;;;;;;;;21.20;98.80;;;;;;5040712;28;19916;-72
2022/08/06 09:25:49;;;;;;;;;;;21.30;98.00;;;;;;5029067;28;19925;-80
2022/08/06 09:28:27;;;;;;;;;;;21.30;98.10;;;;;;5037471;28;19917;-71
2022/08/06 09:31:05;;;;;;;;;;;21.10;98.70;;;;;;5048515;28;19917;-72
2022/08/06 09:33:31;;;;;;;;;;;21.00;98.40;;;;;;5040040;28;19932;-72
2022/08/06 09:35:58;;;;;;;;;;;21.20;99.00;;;;;;5037950;28;19948;-73
2022/08/06 09:38:23;;;;;;;;;;;21.60;97.90;;;;;;5042287;28;19912;-72
2022/08/06 09:41:02;;;;;;;;;;;21.60;96.70;;;;;;5041871;28;19928;-72
2022/08/06 09:43:28;;;;;;;;;;;21.40;97.80;;;;;;5035495;28;19920;-79
2022/08/06 09:45:53;;;;;;;;;;;20.50;96.10;;;;;;5030583;28;20209;-73
2022/08/06 09:48:19;;;;;;;;;;;20.10;98.00;;;;;;5034141;28;20340;-79
2022/08/06 09:50:45;;;;;;;;;;;20.30;99.00;;;;;;5039744;28;19960;-73
2022/08/06 09:53:11;;;;;;;;;;;20.80;97.50;;;;;;5031092;28;19917;-71
2022/08/06 09:55:37;;;;;;;;;;;20.80;97.20;;;;;;5026652;28;19913;-71
2022/08/06 09:58:03;;;;;;;;;;;21.20;98.00;;;;;;5033073;28;19920;-80
2022/08/06 10:00:30;;;;;;;;;;;21.40;97.90;;;;;;5034508;28;19970;-72
2022/08/06 10:03:00;;;;;;;;;;;21.60;97.70;;;;;;5045351;28;19917;-72
2022/08/06 10:05:26;;;;;;;;;;;21.30;97.80;;;;;;5034944;28;19913;-77
2022/08/06 10:08:12;;;;;;;;;;;21.50;97.30;;;;;;5030354;28;19921;-71
2022/08/06 10:10:42;;;;;;;;;;;21.80;97.80;;;;;;5032841;28;19920;-72
2022/08/06 10:13:12;;;;;;;;;;;22.00;96.80;;;;;;5050552;28;20000;-71
2022/08/06 10:15:38;;;;;;;;;;;22.10;96.90;;;;;;5037161;28;20205;-71
2022/08/06 10:18:03;;;;;;;;;;;21.90;96.30;;;;;;5035446;28;19998;-71
2022/08/06 10:20:29;;;;;;;;;;;22.00;95.80;;;;;;5045380;28;19920;-71
2022/08/06 10:22:56;;;;;;;;;;;22.00;97.30;;;;;;5042834;28;19970;-71
2022/08/06 10:25:22;;;;;;;;;;;22.30;96.30;;;;;;5042704;28;19912;-71
2022/08/06 10:27:49;;;;;;;;;;;22.30;96.00;;;;;;5045721;28;19913;-72
2022/08/06 10:30:15;;;;;;;;;;;21.80;95.70;;;;;;5037534;28;20220;-71
2022/08/06 10:32:43;;;;;;;;;;;21.40;96.00;;;;;;5033159;28;19921;-72
2022/08/06 10:35:09;;;;;;;;;;;21.30;96.50;;;;;;5043418;28;19970;-71
2022/08/06 10:37:37;;;;;;;;;;;21.60;97.00;;;;;;5033621;28;19917;-72
2022/08/06 10:40:03;;;;;;;;;;;21.80;96.00;;;;;;5039929;28;19924;-71
2022/08/06 10:42:29;;;;;;;;;;;21.90;96.30;;;;;;5042750;28;19923;-71
2022/08/06 10:44:55;;;;;;;;;;;22.00;96.20;;;;;;5043236;28;20219;-74
2022/08/06 10:47:22;;;;;;;;;;;21.90;97.30;;;;;;5041649;28;19920;-72
2022/08/06 10:49:48;;;;;;;;;;;22.00;96.80;;;;;;5031592;28;20023;-71
2022/08/06 10:52:14;;;;;;;;;;;22.00;96.40;;;;;;5030634;28;20244;-80
2022/08/06 10:54:40;;;;;;;;;;;22.30;97.00;;;;;;5037576;28;20324;-71
2022/08/06 10:57:12;;;;;;;;;;;22.50;95.30;;;;;;5046322;28;19923;-72
2022/08/06 10:59:38;;;;;;;;;;;22.90;93.50;;;;;;5044204;28;20023;-71
2022/08/06 11:02:04;;;;;;;;;;;23.00;95.90;;;;;;5048750;28;20402;-72
2022/08/06 11:04:39;;;;;;;;;;;22.90;93.10;;;;;;5031552;28;20015;-71
2022/08/06 11:07:07;;;;;;;;;;;23.00;93.90;;;;;;5040538;28;20223;-72
2022/08/06 11:09:51;;;;;;;;;;;22.90;95.00;;;;;;5043502;28;20364;-71
2022/08/06 11:12:33;;;;;;;;;;;22.60;94.80;;;;;;5056336;28;20326;-72
2022/08/06 11:14:59;;;;;;;;;;;22.50;95.00;;;;;;5040139;28;19919;-71
2022/08/06 11:17:24;;;;;;;;;;;22.30;95.90;;;;;;5043663;28;19921;-73
2022/08/06 11:19:50;;;;;;;;;;;22.50;94.60;;;;;;5042875;28;19956;-74
2022/08/06 11:22:31;;;;;;;;;;;22.20;93.50;;;;;;5045851;28;19962;-71
2022/08/06 11:24:57;;;;;;;;;;;22.40;95.40;;;;;;5041374;28;20254;-73
2022/08/06 11:27:52;;;;;;;;;;;22.60;93.00;;;;;;5042489;28;19913;-79
2022/08/06 11:30:18;;;;;;;;;;;22.60;93.70;;;;;;5034159;28;19948;-71
2022/08/06 11:32:45;;;;;;;;;;;23.00;93.30;;;;;;5033339;28;19986;-71
2022/08/06 11:35:29;;;;;;;;;;;23.10;93.30;;;;;;5030970;28;20283;-72
2022/08/06 11:37:55;;;;;;;;;;;23.10;92.70;;;;;;5050009;28;19953;-71
2022/08/06 11:40:20;;;;;;;;;;;23.00;93.20;;;;;;5028760;28;19952;-71
2022/08/06 11:42:46;;;;;;;;;;;22.90;93.60;;;;;;5035818;28;19935;-71
2022/08/06 11:45:11;;;;;;;;;;;23.10;94.40;;;;;;5041452;28;19913;-71
2022/08/06 11:47:57;;;;;;;;;;;23.30;93.00;;;;;;5048440;28;19916;-71
2022/08/06 11:50:23;;;;;;;;;;;23.50;92.40;;;;;;5038263;28;19920;-74
2022/08/06 11:52:48;;;;;;;;;;;23.30;91.90;;;;;;5040341;28;19913;-71
2022/08/06 11:55:15;;;;;;;;;;;23.30;93.40;;;;;;5033341;28;19921;-70
2022/08/06 11:57:40;;;;;;;;;;;23.50;92.60;;;;;;5037882;28;19918;-72
2022/08/06 12:00:09;;;;;;;;;;;23.50;92.30;;;;;;5034054;28;19913;-71
2022/08/06 12:02:41;;;;;;;;;;;23.20;92.40;;;;;;5030522;28;19921;-71
2022/08/06 12:05:35;;;;;;;;;;;23.10;92.60;;;;;;5028509;28;19913;-70
2022/08/06 12:08:14;;;;;;;;;;;23.00;91.70;;;;;;5024988;28;19924;-71
2022/08/06 12:10:39;;;;;;;;;;;23.10;92.20;;;;;;5035273;28;20272;-71
2022/08/06 12:13:25;;;;;;;;;;;23.40;91.10;;;;;;5041252;28;19917;-70
2022/08/06 12:15:50;;;;;;;;;;;23.70;91.30;;;;;;5045359;28;20292;-70
2022/08/06 12:18:16;;;;;;;;;;;23.90;91.50;;;;;;5038111;28;19932;-71
2022/08/06 12:20:43;;;;;;;;;;;23.90;91.10;;;;;;5040342;28;19916;-78
2022/08/06 12:23:10;;;;;;;;;;;24.00;92.10;;;;;;5037630;28;19959;-71
2022/08/06 12:25:42;;;;;;;;;;;23.60;91.00;;;;;;5031182;28;19924;-70
2022/08/06 12:28:10;;;;;;;;;;;23.40;91.80;;;;;;5031123;28;20011;-71
2022/08/06 12:30:45;;;;;;;;;;;23.70;91.70;;;;;;5031542;28;19939;-72
2022/08/06 12:33:12;;;;;;;;;;;23.70;92.50;;;;;;5025365;28;19923;-72
2022/08/06 12:35:53;;;;;;;;;;;23.50;92.20;;;;;;5031806;28;19918;-70
2022/08/06 12:38:19;;;;;;;;;;;23.30;93.00;;;;;;5030763;28;19917;-71
2022/08/06 12:40:52;;;;;;;;;;;23.30;92.40;;;;;;5032247;28;20200;-70
2022/08/06 12:43:18;;;;;;;;;;;23.20;92.60;;;;;;5032700;28;20314;-72
2022/08/06 12:45:43;;;;;;;;;;;23.10;91.50;;;;;;5037050;28;19921;-70
2022/08/06 12:48:10;;;;;;;;;;;23.10;92.00;;;;;;5034396;28;19924;-70
2022/08/06 12:50:40;;;;;;;;;;;23.20;92.50;;;;;;5029212;28;20010;-70
2022/08/06 12:53:07;;;;;;;;;;;23.20;91.90;;;;;;5031402;28;19928;-71
2022/08/06 12:55:33;;;;;;;;;;;23.40;91.30;;;;;;5041352;28;20322;-71
2022/08/06 12:58:00;;;;;;;;;;;23.40;92.60;;;;;;5038250;28;20316;-71
2022/08/06 13:00:26;;;;;;;;;;;23.50;92.80;;;;;;5038299;28;19917;-71
2022/08/06 13:02:53;;;;;;;;;;;23.70;92.60;;;;;;5033741;28;20387;-72
2022/08/06 13:05:18;;;;;;;;;;;23.80;91.20;;;;;;5033930;28;20011;-70
2022/08/06 13:07:44;;;;;;;;;;;23.70;93.10;;;;;;5035425;28;20004;-72
2022/08/06 13:10:11;;;;;;;;;;;23.70;92.60;;;;;;5029526;28;19913;-71
2022/08/06 13:12:36;;;;;;;;;;;23.80;92.50;;;;;;5032883;28;19913;-69
2022/08/06 13:15:09;;;;;;;;;;;24.00;92.50;;;;;;5033723;28;19920;-70
2022/08/06 13:17:35;;;;;;;;;;;23.90;92.60;;;;;;5032785;28;19925;-72
2022/08/06 13:20:01;;;;;;;;;;;23.80;92.10;;;;;;5033835;28;20589;-71
2022/08/06 13:22:27;;;;;;;;;;;23.80;92.20;;;;;;5033144;28;19923;-70
2022/08/06 13:25:11;;;;;;;;;;;23.70;92.60;;;;;;5034511;28;20275;-70
2022/08/06 13:27:37;;;;;;;;;;;23.60;92.20;;;;;;5033411;28;20004;-70
2022/08/06 13:30:07;;;;;;;;;;;23.20;92.60;;;;;;5033540;28;20009;-71
2022/08/06 13:32:33;;;;;;;;;;;23.30;93.50;;;;;;5032909;28;19921;-70
2022/08/06 13:35:00;;;;;;;;;;;23.40;91.70;;;;;;5049905;28;19968;-70
2022/08/06 13:37:43;;;;;;;;;;;23.50;92.60;;;;;;5035884;28;19913;-72
2022/08/06 13:40:08;;;;;;;;;;;23.60;91.90;;;;;;5035143;28;19920;-70
2022/08/06 13:42:47;;;;;;;;;;;23.20;92.80;;;;;;5032648;28;19921;-70
2022/08/06 13:45:22;;;;;;;;;;;23.20;92.70;;;;;;5036490;28;19917;-70
2022/08/06 13:47:49;;;;;;;;;;;23.30;92.00;;;;;;5035034;28;20381;-70
2022/08/06 13:50:16;;;;;;;;;;;23.40;91.90;;;;;;5044561;28;19939;-70
2022/08/06 13:52:42;;;;;;;;;;;23.50;92.90;;;;;;5041126;28;19917;-70
2022/08/06 13:55:08;;;;;;;;;;;23.40;92.60;;;;;;5037506;28;19920;-71
2022/08/06 13:57:35;;;;;;;;;;;23.10;93.20;;;;;;5038834;28;20331;-71
2022/08/06 14:00:01;;;;;;;;;;;23.20;93.30;;;;;;5037011;28;20028;-71
2022/08/06 14:02:27;;;;;;;;;;;23.10;92.80;;;;;;5032490;28;20259;-71
2022/08/06 14:04:52;;;;;;;;;;;23.30;93.00;;;;;;5032961;28;19917;-70
2022/08/06 14:07:18;;;;;;;;;;;23.30;92.40;;;;;;5038122;28;19971;-70
2022/08/06 14:09:44;;;;;;;;;;;23.40;91.80;;;;;;5036320;28;19943;-71
2022/08/06 14:12:10;;;;;;;;;;;23.50;92.70;;;;;;5033123;28;19925;-70
2022/08/06 14:14:36;;;;;;;;;;;23.40;92.60;;;;;;5031161;28;19917;-70
2022/08/06 14:17:02;;;;;;;;;;;23.50;92.50;;;;;;5038251;28;20290;-72
2022/08/06 14:19:27;;;;;;;;;;;23.60;92.10;;;;;;5031080;28;19925;-76
2022/08/06 14:21:53;;;;;;;;;;;23.30;93.20;;;;;;5042697;28;20328;-69
2022/08/06 14:24:19;;;;;;;;;;;23.10;94.10;;;;;;5043595;28;19917;-70